KSCK/SCK METAR and TAF weather

Enter ICAO airport designator
Station Type Date Time Source
KSCK METAR 2019/05/21 19:55 UTC NOAA

KSCK 211955Z 25010KT 4SM R29R/5000VP6000FT +RA FEW026 SCT038 BKN050 15/11 A2990 RMK AO2 RAE18B45 SLP124 P0009 T01500111


Station Type Date Time Source
KSCK Decoded METAR 2019/05/21 19:55 UTC NOAA

STOCKTON METROPOLITAN AIRPORT , CA, United States (KSCK) 37-54N 121-14W 10M
May 21, 2019 - 03:55 PM EDT / 2019.05.21 1955 UTC
Wind: from the WSW (250 degrees) at 12 MPH (10 KT):0
Visibility: 4 mile(s):0
Sky conditions: mostly cloudy
Weather: heavy rain
Precipitation last hour: 0.09 inches
Temperature: 59.0 F (15.0 C)
Dew Point: 52.0 F (11.1 C)
Relative Humidity: 77%
Pressure (altimeter): 29.9 in. Hg (1012 hPa)
ob: KSCK 211955Z 25010KT 4SM R29R/5000VP6000FT +RA FEW026 SCT038 BKN050 15/11 A2990 RMK AO2 RAE18B45 SLP124 P0009 T01500111
cycle: 20

Station Type Date Time Source
KSCK TAF 2019/05/21 18:48 UTC NOAA

TAF KSCK 211747Z 2118/2218 24009KT P6SM SCT025 OVC040
FM212000 27013G20KT P6SM -SHRA SCT025 OVC040
FM220500 27011KT P6SM BKN060

Example: see airport list